sensor_id;sensor_type;location;lat;lon;timestamp;P1;durP1;ratioP1;P2;durP2;ratioP2
15952;SDS011;8075;47.766;8.846;2023-04-01T00:00:57;3.20;;;0.70;;
15952;SDS011;8075;47.766;8.846;2023-04-01T00:03:24;2.28;;;0.70;;
15952;SDS011;8075;47.766;8.846;2023-04-01T00:05:51;3.08;;;1.05;;
15952;SDS011;8075;47.766;8.846;2023-04-01T00:08:17;3.60;;;0.80;;
15952;SDS011;8075;47.766;8.846;2023-04-01T00:10:43;2.38;;;0.90;;
15952;SDS011;8075;47.766;8.846;2023-04-01T00:13:09;2.67;;;1.13;;
15952;SDS011;8075;47.766;8.846;2023-04-01T00:15:35;3.50;;;0.77;;
15952;SDS011;8075;47.766;8.846;2023-04-01T00:18:01;2.27;;;0.80;;
15952;SDS011;8075;47.766;8.846;2023-04-01T00:20:28;2.70;;;0.70;;
15952;SDS011;8075;47.766;8.846;2023-04-01T00:22:54;3.67;;;0.88;;
15952;SDS011;8075;47.766;8.846;2023-04-01T00:25:20;2.17;;;0.80;;
15952;SDS011;8075;47.766;8.846;2023-04-01T00:27:46;2.53;;;0.70;;
15952;SDS011;8075;47.766;8.846;2023-04-01T00:30:12;2.20;;;0.77;;
15952;SDS011;8075;47.766;8.846;2023-04-01T00:32:38;2.60;;;0.90;;
15952;SDS011;8075;47.766;8.846;2023-04-01T00:35:04;4.05;;;0.90;;
15952;SDS011;8075;47.766;8.846;2023-04-01T00:37:30;2.00;;;0.70;;
15952;SDS011;8075;47.766;8.846;2023-04-01T00:39:56;3.42;;;0.70;;
15952;SDS011;8075;47.766;8.846;2023-04-01T00:42:22;1.50;;;0.50;;
15952;SDS011;8075;47.766;8.846;2023-04-01T00:44:52;2.13;;;0.70;;
15952;SDS011;8075;47.766;8.846;2023-04-01T00:47:18;1.08;;;0.55;;
15952;SDS011;8075;47.766;8.846;2023-04-01T00:49:45;2.63;;;0.50;;
15952;SDS011;8075;47.766;8.846;2023-04-01T00:52:13;1.00;;;0.50;;
15952;SDS011;8075;47.766;8.846;2023-04-01T00:54:40;1.58;;;0.50;;
15952;SDS011;8075;47.766;8.846;2023-04-01T00:57:15;1.58;;;0.50;;
15952;SDS011;8075;47.766;8.846;2023-04-01T00:59:45;1.17;;;0.50;;
15952;SDS011;8075;47.766;8.846;2023-04-01T01:02:13;1.08;;;0.30;;
15952;SDS011;8075;47.766;8.846;2023-04-01T01:04:40;0.95;;;0.43;;
15952;SDS011;8075;47.766;8.846;2023-04-01T01:07:11;1.05;;;0.30;;
15952;SDS011;8075;47.766;8.846;2023-04-01T01:17:02;0.52;;;0.30;;
15952;SDS011;8075;47.766;8.846;2023-04-01T01:19:40;2.08;;;0.35;;
15952;SDS011;8075;47.766;8.846;2023-04-01T01:22:24;0.80;;;0.35;;
15952;SDS011;8075;47.766;8.846;2023-04-01T01:27:21;0.73;;;0.30;;
15952;SDS011;8075;47.766;8.846;2023-04-01T01:37:42;0.68;;;0.20;;
15952;SDS011;8075;47.766;8.846;2023-04-01T01:40:10;0.88;;;0.30;;
15952;SDS011;8075;47.766;8.846;2023-04-01T01:42:38;1.05;;;0.22;;
15952;SDS011;8075;47.766;8.846;2023-04-01T01:45:06;1.13;;;0.40;;
15952;SDS011;8075;47.766;8.846;2023-04-01T01:47:33;0.68;;;0.30;;
15952;SDS011;8075;47.766;8.846;2023-04-01T01:50:00;0.68;;;0.30;;
15952;SDS011;8075;47.766;8.846;2023-04-01T01:52:27;0.90;;;0.40;;
15952;SDS011;8075;47.766;8.846;2023-04-01T01:54:56;1.52;;;0.55;;
15952;SDS011;8075;47.766;8.846;2023-04-01T01:57:24;1.23;;;0.50;;
15952;SDS011;8075;47.766;8.846;2023-04-01T01:59:52;2.17;;;0.70;;
15952;SDS011;8075;47.766;8.846;2023-04-01T02:02:21;1.50;;;0.52;;
15952;SDS011;8075;47.766;8.846;2023-04-01T02:04:48;2.00;;;0.60;;
15952;SDS011;8075;47.766;8.846;2023-04-01T02:07:22;1.95;;;0.60;;
15952;SDS011;8075;47.766;8.846;2023-04-01T02:09:49;2.45;;;0.60;;
15952;SDS011;8075;47.766;8.846;2023-04-01T02:12:16;1.42;;;0.60;;
15952;SDS011;8075;47.766;8.846;2023-04-01T02:14:44;2.20;;;0.80;;
15952;SDS011;8075;47.766;8.846;2023-04-01T02:17:14;3.75;;;0.60;;
15952;SDS011;8075;47.766;8.846;2023-04-01T02:19:51;2.45;;;0.70;;
15952;SDS011;8075;47.766;8.846;2023-04-01T02:22:23;1.65;;;0.70;;
15952;SDS011;8075;47.766;8.846;2023-04-01T02:24:50;2.20;;;0.70;;
15952;SDS011;8075;47.766;8.846;2023-04-01T02:27:17;2.40;;;0.70;;
15952;SDS011;8075;47.766;8.846;2023-04-01T02:29:43;2.50;;;0.70;;
15952;SDS011;8075;47.766;8.846;2023-04-01T02:32:09;3.08;;;0.63;;
15952;SDS011;8075;47.766;8.846;2023-04-01T02:34:35;1.85;;;0.73;;
15952;SDS011;8075;47.766;8.846;2023-04-01T02:37:02;1.83;;;0.70;;
15952;SDS011;8075;47.766;8.846;2023-04-01T02:39:28;1.77;;;0.57;;
15952;SDS011;8075;47.766;8.846;2023-04-01T02:41:54;3.03;;;0.80;;
15952;SDS011;8075;47.766;8.846;2023-04-01T02:44:20;3.00;;;0.70;;
15952;SDS011;8075;47.766;8.846;2023-04-01T02:46:46;4.55;;;0.90;;
15952;SDS011;8075;47.766;8.846;2023-04-01T02:49:12;2.53;;;0.82;;
15952;SDS011;8075;47.766;8.846;2023-04-01T02:51:38;2.15;;;0.80;;
15952;SDS011;8075;47.766;8.846;2023-04-01T02:54:04;3.38;;;0.90;;
15952;SDS011;8075;47.766;8.846;2023-04-01T02:56:30;2.95;;;1.08;;
15952;SDS011;8075;47.766;8.846;2023-04-01T02:58:56;2.75;;;0.75;;
15952;SDS011;8075;47.766;8.846;2023-04-01T03:01:22;3.05;;;0.90;;
15952;SDS011;8075;47.766;8.846;2023-04-01T03:03:48;4.85;;;0.90;;
15952;SDS011;8075;47.766;8.846;2023-04-01T03:06:15;2.58;;;0.90;;
15952;SDS011;8075;47.766;8.846;2023-04-01T03:08:41;3.30;;;0.80;;
15952;SDS011;8075;47.766;8.846;2023-04-01T03:11:08;2.50;;;0.85;;
15952;SDS011;8075;47.766;8.846;2023-04-01T03:13:34;3.50;;;0.80;;
15952;SDS011;8075;47.766;8.846;2023-04-01T03:16:00;2.40;;;0.88;;
15952;SDS011;8075;47.766;8.846;2023-04-01T03:18:26;3.37;;;0.83;;
15952;SDS011;8075;47.766;8.846;2023-04-01T03:20:52;3.50;;;0.90;;
15952;SDS011;8075;47.766;8.846;2023-04-01T03:23:19;3.17;;;0.95;;
15952;SDS011;8075;47.766;8.846;2023-04-01T03:25:46;3.45;;;1.08;;
15952;SDS011;8075;47.766;8.846;2023-04-01T03:28:12;4.60;;;0.83;;
15952;SDS011;8075;47.766;8.846;2023-04-01T03:30:38;2.78;;;0.80;;
15952;SDS011;8075;47.766;8.846;2023-04-01T03:33:05;2.70;;;0.90;;
15952;SDS011;8075;47.766;8.846;2023-04-01T03:35:32;2.90;;;0.88;;
15952;SDS011;8075;47.766;8.846;2023-04-01T03:37:58;2.90;;;0.73;;
15952;SDS011;8075;47.766;8.846;2023-04-01T03:40:24;2.20;;;0.60;;
15952;SDS011;8075;47.766;8.846;2023-04-01T03:42:51;3.65;;;0.70;;
15952;SDS011;8075;47.766;8.846;2023-04-01T03:45:17;3.65;;;0.90;;
15952;SDS011;8075;47.766;8.846;2023-04-01T03:47:44;3.17;;;0.95;;
15952;SDS011;8075;47.766;8.846;2023-04-01T03:50:10;2.33;;;0.65;;
15952;SDS011;8075;47.766;8.846;2023-04-01T03:52:36;2.93;;;0.90;;
15952;SDS011;8075;47.766;8.846;2023-04-01T03:55:02;3.50;;;0.90;;
15952;SDS011;8075;47.766;8.846;2023-04-01T03:57:30;2.30;;;0.77;;
15952;SDS011;8075;47.766;8.846;2023-04-01T03:59:56;3.15;;;0.90;;
15952;SDS011;8075;47.766;8.846;2023-04-01T04:02:22;6.30;;;0.97;;
15952;SDS011;8075;47.766;8.846;2023-04-01T04:04:48;2.95;;;0.80;;
15952;SDS011;8075;47.766;8.846;2023-04-01T04:07:14;3.30;;;0.98;;
15952;SDS011;8075;47.766;8.846;2023-04-01T04:09:40;4.25;;;1.20;;
15952;SDS011;8075;47.766;8.846;2023-04-01T04:12:06;4.32;;;1.10;;
15952;SDS011;8075;47.766;8.846;2023-04-01T04:14:32;4.93;;;1.25;;
15952;SDS011;8075;47.766;8.846;2023-04-01T04:16:58;3.88;;;1.00;;
15952;SDS011;8075;47.766;8.846;2023-04-01T04:19:24;3.13;;;1.08;;
15952;SDS011;8075;47.766;8.846;2023-04-01T04:21:50;4.13;;;1.03;;
15952;SDS011;8075;47.766;8.846;2023-04-01T04:24:16;3.15;;;0.95;;
15952;SDS011;8075;47.766;8.846;2023-04-01T04:26:42;3.80;;;1.20;;
15952;SDS011;8075;47.766;8.846;2023-04-01T04:29:08;3.80;;;1.15;;
15952;SDS011;8075;47.766;8.846;2023-04-01T04:31:34;3.20;;;1.00;;
15952;SDS011;8075;47.766;8.846;2023-04-01T04:34:00;3.60;;;0.95;;
15952;SDS011;8075;47.766;8.846;2023-04-01T04:36:26;4.05;;;1.00;;
15952;SDS011;8075;47.766;8.846;2023-04-01T04:38:52;4.47;;;1.00;;
15952;SDS011;8075;47.766;8.846;2023-04-01T04:41:19;3.03;;;0.90;;
15952;SDS011;8075;47.766;8.846;2023-04-01T04:43:51;2.97;;;0.98;;
15952;SDS011;8075;47.766;8.846;2023-04-01T04:46:17;5.20;;;1.00;;
15952;SDS011;8075;47.766;8.846;2023-04-01T04:48:43;2.78;;;0.77;;
15952;SDS011;8075;47.766;8.846;2023-04-01T04:51:12;3.38;;;1.00;;
15952;SDS011;8075;47.766;8.846;2023-04-01T04:53:38;2.83;;;0.70;;
15952;SDS011;8075;47.766;8.846;2023-04-01T04:56:04;2.22;;;0.80;;
15952;SDS011;8075;47.766;8.846;2023-04-01T04:58:30;3.50;;;0.80;;
15952;SDS011;8075;47.766;8.846;2023-04-01T05:00:56;2.97;;;0.80;;
15952;SDS011;8075;47.766;8.846;2023-04-01T05:03:22;2.35;;;0.80;;
15952;SDS011;8075;47.766;8.846;2023-04-01T05:05:49;2.03;;;0.63;;
15952;SDS011;8075;47.766;8.846;2023-04-01T05:08:16;2.30;;;0.70;;
15952;SDS011;8075;47.766;8.846;2023-04-01T05:10:42;3.40;;;0.80;;
15952;SDS011;8075;47.766;8.846;2023-04-01T05:13:08;3.38;;;0.60;;
15952;SDS011;8075;47.766;8.846;2023-04-01T05:15:34;1.45;;;0.60;;
15952;SDS011;8075;47.766;8.846;2023-04-01T05:18:00;2.20;;;0.65;;
15952;SDS011;8075;47.766;8.846;2023-04-01T05:20:26;1.80;;;0.77;;
15952;SDS011;8075;47.766;8.846;2023-04-01T05:22:56;2.90;;;0.77;;
15952;SDS011;8075;47.766;8.846;2023-04-01T05:25:22;1.95;;;0.60;;
15952;SDS011;8075;47.766;8.846;2023-04-01T05:27:47;3.15;;;0.80;;
15952;SDS011;8075;47.766;8.846;2023-04-01T05:30:13;2.47;;;0.80;;
15952;SDS011;8075;47.766;8.846;2023-04-01T05:32:39;3.75;;;0.80;;
15952;SDS011;8075;47.766;8.846;2023-04-01T05:35:06;2.67;;;1.00;;
15952;SDS011;8075;47.766;8.846;2023-04-01T05:37:35;4.25;;;0.88;;
15952;SDS011;8075;47.766;8.846;2023-04-01T05:40:02;3.47;;;0.75;;
15952;SDS011;8075;47.766;8.846;2023-04-01T05:42:28;3.03;;;0.90;;
15952;SDS011;8075;47.766;8.846;2023-04-01T05:44:56;2.75;;;0.70;;
15952;SDS011;8075;47.766;8.846;2023-04-01T05:47:22;2.22;;;0.70;;
15952;SDS011;8075;47.766;8.846;2023-04-01T05:49:48;1.90;;;0.60;;
15952;SDS011;8075;47.766;8.846;2023-04-01T05:52:14;1.67;;;0.60;;
15952;SDS011;8075;47.766;8.846;2023-04-01T05:54:40;1.73;;;0.50;;
15952;SDS011;8075;47.766;8.846;2023-04-01T05:57:06;1.90;;;0.50;;
15952;SDS011;8075;47.766;8.846;2023-04-01T05:59:32;1.70;;;0.60;;
15952;SDS011;8075;47.766;8.846;2023-04-01T06:01:59;1.38;;;0.52;;
15952;SDS011;8075;47.766;8.846;2023-04-01T06:04:26;1.98;;;0.70;;
15952;SDS011;8075;47.766;8.846;2023-04-01T06:06:57;1.23;;;0.50;;
15952;SDS011;8075;47.766;8.846;2023-04-01T06:09:25;1.58;;;0.63;;
15952;SDS011;8075;47.766;8.846;2023-04-01T06:19:51;1.75;;;0.55;;
15952;SDS011;8075;47.766;8.846;2023-04-01T06:32:55;1.00;;;0.40;;
15952;SDS011;8075;47.766;8.846;2023-04-01T06:51:16;1.27;;;0.60;;
15952;SDS011;8075;47.766;8.846;2023-04-01T06:56:30;1.48;;;0.50;;
15952;SDS011;8075;47.766;8.846;2023-04-01T06:58:58;1.10;;;0.50;;
15952;SDS011;8075;47.766;8.846;2023-04-01T07:01:30;1.13;;;0.40;;
15952;SDS011;8075;47.766;8.846;2023-04-01T07:03:59;2.22;;;0.50;;
15952;SDS011;8075;47.766;8.846;2023-04-01T07:06:35;1.08;;;0.40;;
15952;SDS011;8075;47.766;8.846;2023-04-01T07:09:02;1.45;;;0.30;;
15952;SDS011;8075;47.766;8.846;2023-04-01T07:11:34;0.75;;;0.38;;
15952;SDS011;8075;47.766;8.846;2023-04-01T07:17:12;0.77;;;0.40;;
15952;SDS011;8075;47.766;8.846;2023-04-01T07:19:48;1.38;;;0.45;;
15952;SDS011;8075;47.766;8.846;2023-04-01T07:22:28;1.45;;;0.65;;
15952;SDS011;8075;47.766;8.846;2023-04-01T07:24:55;1.77;;;0.60;;
15952;SDS011;8075;47.766;8.846;2023-04-01T07:27:23;1.60;;;0.90;;
15952;SDS011;8075;47.766;8.846;2023-04-01T07:29:49;1.38;;;0.50;;
15952;SDS011;8075;47.766;8.846;2023-04-01T07:48:24;1.55;;;0.40;;
15952;SDS011;8075;47.766;8.846;2023-04-01T07:50:59;1.50;;;0.50;;
15952;SDS011;8075;47.766;8.846;2023-04-01T07:53:31;1.27;;;0.40;;
15952;SDS011;8075;47.766;8.846;2023-04-01T07:56:06;1.20;;;0.43;;
15952;SDS011;8075;47.766;8.846;2023-04-01T08:01:33;1.30;;;0.50;;
15952;SDS011;8075;47.766;8.846;2023-04-01T08:06:45;1.20;;;0.45;;
15952;SDS011;8075;47.766;8.846;2023-04-01T08:11:57;0.57;;;0.40;;
15952;SDS011;8075;47.766;8.846;2023-04-01T08:14:35;0.45;;;0.30;;
15952;SDS011;8075;47.766;8.846;2023-04-01T08:17:20;1.45;;;0.40;;
15952;SDS011;8075;47.766;8.846;2023-04-01T08:22:48;0.45;;;0.32;;
15952;SDS011;8075;47.766;8.846;2023-04-01T08:25:17;1.38;;;0.43;;
15952;SDS011;8075;47.766;8.846;2023-04-01T08:27:46;0.70;;;0.20;;
15952;SDS011;8075;47.766;8.846;2023-04-01T08:30:18;0.40;;;0.30;;
15952;SDS011;8075;47.766;8.846;2023-04-01T08:33:09;1.10;;;0.30;;
15952;SDS011;8075;47.766;8.846;2023-04-01T08:35:38;1.00;;;0.30;;
15952;SDS011;8075;47.766;8.846;2023-04-01T08:38:10;1.03;;;0.40;;
15952;SDS011;8075;47.766;8.846;2023-04-01T08:51:18;0.55;;;0.30;;
15952;SDS011;8075;47.766;8.846;2023-04-01T08:56:16;1.30;;;0.50;;
15952;SDS011;8075;47.766;8.846;2023-04-01T09:06:32;0.43;;;0.30;;
15952;SDS011;8075;47.766;8.846;2023-04-01T09:11:30;0.52;;;0.30;;
15952;SDS011;8075;47.766;8.846;2023-04-01T09:21:48;1.02;;;0.38;;
15952;SDS011;8075;47.766;8.846;2023-04-01T09:27:05;0.50;;;0.30;;
15952;SDS011;8075;47.766;8.846;2023-04-01T09:32:01;0.50;;;0.40;;
15952;SDS011;8075;47.766;8.846;2023-04-01T09:37:20;0.57;;;0.30;;
15952;SDS011;8075;47.766;8.846;2023-04-01T09:47:59;0.70;;;0.40;;
15952;SDS011;8075;47.766;8.846;2023-04-01T09:50:35;1.38;;;0.35;;
15952;SDS011;8075;47.766;8.846;2023-04-01T09:53:17;0.82;;;0.40;;
15952;SDS011;8075;47.766;8.846;2023-04-01T09:58:16;0.80;;;0.43;;
15952;SDS011;8075;47.766;8.846;2023-04-01T10:01:05;0.53;;;0.30;;
15952;SDS011;8075;47.766;8.846;2023-04-01T10:16:45;0.80;;;0.40;;
15952;SDS011;8075;47.766;8.846;2023-04-01T10:19:30;0.47;;;0.20;;
15952;SDS011;8075;47.766;8.846;2023-04-01T10:27:21;1.17;;;0.23;;
15952;SDS011;8075;47.766;8.846;2023-04-01T10:40:17;0.55;;;0.40;;
15952;SDS011;8075;47.766;8.846;2023-04-01T11:16:20;0.38;;;0.30;;
15952;SDS011;8075;47.766;8.846;2023-04-01T11:21:34;0.73;;;0.35;;
15952;SDS011;8075;47.766;8.846;2023-04-01T11:32:20;1.05;;;0.40;;
15952;SDS011;8075;47.766;8.846;2023-04-01T11:40:26;0.80;;;0.35;;
15952;SDS011;8075;47.766;8.846;2023-04-01T11:43:01;0.35;;;0.25;;
15952;SDS011;8075;47.766;8.846;2023-04-01T11:45:32;0.30;;;0.30;;
15952;SDS011;8075;47.766;8.846;2023-04-01T11:48:19;0.40;;;0.30;;
15952;SDS011;8075;47.766;8.846;2023-04-01T11:55:50;1.25;;;0.60;;
15952;SDS011;8075;47.766;8.846;2023-04-01T12:03:50;0.82;;;0.50;;
15952;SDS011;8075;47.766;8.846;2023-04-01T12:06:27;0.77;;;0.33;;
15952;SDS011;8075;47.766;8.846;2023-04-01T12:14:27;0.38;;;0.30;;
15952;SDS011;8075;47.766;8.846;2023-04-01T12:17:03;0.30;;;0.28;;
15952;SDS011;8075;47.766;8.846;2023-04-01T12:24:47;1.70;;;0.30;;
15952;SDS011;8075;47.766;8.846;2023-04-01T12:27:27;0.90;;;0.40;;
15952;SDS011;8075;47.766;8.846;2023-04-01T12:38:30;0.60;;;0.25;;
15952;SDS011;8075;47.766;8.846;2023-04-01T12:54:37;0.73;;;0.40;;
15952;SDS011;8075;47.766;8.846;2023-04-01T13:07:58;1.00;;;0.40;;
15952;SDS011;8075;47.766;8.846;2023-04-01T13:18:52;0.60;;;0.38;;
15952;SDS011;8075;47.766;8.846;2023-04-01T13:24:00;0.90;;;0.50;;
15952;SDS011;8075;47.766;8.846;2023-04-01T13:29:18;0.40;;;0.20;;
15952;SDS011;8075;47.766;8.846;2023-04-01T13:31:59;0.60;;;0.22;;
15952;SDS011;8075;47.766;8.846;2023-04-01T13:37:15;0.75;;;0.40;;
15952;SDS011;8075;47.766;8.846;2023-04-01T13:42:22;0.55;;;0.30;;
15952;SDS011;8075;47.766;8.846;2023-04-01T13:58:23;0.75;;;0.45;;
15952;SDS011;8075;47.766;8.846;2023-04-01T14:01:05;1.15;;;0.30;;
15952;SDS011;8075;47.766;8.846;2023-04-01T14:06:31;1.38;;;0.40;;
15952;SDS011;8075;47.766;8.846;2023-04-01T14:09:11;0.70;;;0.40;;
15952;SDS011;8075;47.766;8.846;2023-04-01T14:25:06;0.80;;;0.30;;
15952;SDS011;8075;47.766;8.846;2023-04-01T14:35:41;0.73;;;0.35;;
15952;SDS011;8075;47.766;8.846;2023-04-01T14:38:27;0.50;;;0.40;;
15952;SDS011;8075;47.766;8.846;2023-04-01T14:40:56;1.13;;;0.60;;
15952;SDS011;8075;47.766;8.846;2023-04-01T14:46:06;1.30;;;0.50;;
15952;SDS011;8075;47.766;8.846;2023-04-01T14:48:38;1.10;;;0.40;;
15952;SDS011;8075;47.766;8.846;2023-04-01T14:51:22;1.48;;;0.60;;
15952;SDS011;8075;47.766;8.846;2023-04-01T14:56:38;1.50;;;0.60;;
15952;SDS011;8075;47.766;8.846;2023-04-01T14:59:07;1.23;;;0.52;;
15952;SDS011;8075;47.766;8.846;2023-04-01T15:01:40;1.63;;;0.70;;
15952;SDS011;8075;47.766;8.846;2023-04-01T15:07:21;1.52;;;0.70;;
15952;SDS011;8075;47.766;8.846;2023-04-01T15:12:31;1.25;;;0.45;;
15952;SDS011;8075;47.766;8.846;2023-04-01T15:23:05;0.52;;;0.50;;
15952;SDS011;8075;47.766;8.846;2023-04-01T15:26:21;0.70;;;0.40;;
15952;SDS011;8075;47.766;8.846;2023-04-01T15:28:33;0.80;;;0.30;;
15952;SDS011;8075;47.766;8.846;2023-04-01T15:31:04;0.27;;;0.20;;
15952;SDS011;8075;47.766;8.846;2023-04-01T15:33:53;0.75;;;0.30;;
15952;SDS011;8075;47.766;8.846;2023-04-01T15:42:22;0.80;;;0.50;;
15952;SDS011;8075;47.766;8.846;2023-04-01T15:49:46;1.20;;;0.40;;
15952;SDS011;8075;47.766;8.846;2023-04-01T15:54:57;1.05;;;0.70;;
15952;SDS011;8075;47.766;8.846;2023-04-01T16:05:20;1.05;;;0.60;;
15952;SDS011;8075;47.766;8.846;2023-04-01T16:15:44;1.05;;;0.63;;
15952;SDS011;8075;47.766;8.846;2023-04-01T16:20:44;0.93;;;0.50;;
15952;SDS011;8075;47.766;8.846;2023-04-01T16:23:36;0.50;;;0.32;;
15952;SDS011;8075;47.766;8.846;2023-04-01T16:28:31;1.13;;;0.80;;
15952;SDS011;8075;47.766;8.846;2023-04-01T16:36:10;0.90;;;0.60;;
15952;SDS011;8075;47.766;8.846;2023-04-01T16:38:39;1.30;;;0.50;;
15952;SDS011;8075;47.766;8.846;2023-04-01T16:41:19;0.50;;;0.47;;
15952;SDS011;8075;47.766;8.846;2023-04-01T16:46:31;1.40;;;0.60;;
15952;SDS011;8075;47.766;8.846;2023-04-01T16:54:17;0.93;;;0.60;;
15952;SDS011;8075;47.766;8.846;2023-04-01T16:56:54;1.17;;;0.70;;
15952;SDS011;8075;47.766;8.846;2023-04-01T16:59:34;0.98;;;0.60;;
15952;SDS011;8075;47.766;8.846;2023-04-01T17:07:28;1.15;;;0.60;;
15952;SDS011;8075;47.766;8.846;2023-04-01T17:10:06;0.60;;;0.40;;
15952;SDS011;8075;47.766;8.846;2023-04-01T17:17:43;1.20;;;0.60;;
15952;SDS011;8075;47.766;8.846;2023-04-01T17:20:26;0.50;;;0.50;;
15952;SDS011;8075;47.766;8.846;2023-04-01T17:22:55;1.00;;;0.50;;
15952;SDS011;8075;47.766;8.846;2023-04-01T17:25:33;1.48;;;0.50;;
15952;SDS011;8075;47.766;8.846;2023-04-01T17:49:19;0.80;;;0.50;;
15952;SDS011;8075;47.766;8.846;2023-04-01T18:10:04;1.05;;;0.95;;
15952;SDS011;8075;47.766;8.846;2023-04-01T18:23:35;2.58;;;2.38;;
15952;SDS011;8075;47.766;8.846;2023-04-01T18:26:03;1.67;;;1.30;;
15952;SDS011;8075;47.766;8.846;2023-04-01T18:31:04;2.50;;;2.30;;
15952;SDS011;8075;47.766;8.846;2023-04-01T18:36:33;2.20;;;1.73;;
15952;SDS011;8075;47.766;8.846;2023-04-01T18:39:03;1.20;;;0.80;;
15952;SDS011;8075;47.766;8.846;2023-04-01T18:41:53;1.20;;;1.10;;
15952;SDS011;8075;47.766;8.846;2023-04-01T18:52:33;1.52;;;1.10;;
15952;SDS011;8075;47.766;8.846;2023-04-01T18:57:50;1.48;;;1.02;;
15952;SDS011;8075;47.766;8.846;2023-04-01T19:00:22;1.50;;;1.20;;
15952;SDS011;8075;47.766;8.846;2023-04-01T19:02:51;1.45;;;1.10;;
15952;SDS011;8075;47.766;8.846;2023-04-01T19:05:19;1.55;;;1.23;;
15952;SDS011;8075;47.766;8.846;2023-04-01T19:07:47;1.67;;;1.30;;
15952;SDS011;8075;47.766;8.846;2023-04-01T19:10:15;2.10;;;1.30;;
15952;SDS011;8075;47.766;8.846;2023-04-01T19:12:44;1.70;;;1.13;;
15952;SDS011;8075;47.766;8.846;2023-04-01T19:27:54;2.65;;;1.60;;
15952;SDS011;8075;47.766;8.846;2023-04-01T19:30:31;2.85;;;1.50;;
15952;SDS011;8075;47.766;8.846;2023-04-01T19:38:04;1.13;;;0.80;;
15952;SDS011;8075;47.766;8.846;2023-04-01T19:40:37;1.10;;;0.82;;
15952;SDS011;8075;47.766;8.846;2023-04-01T19:43:23;2.10;;;0.90;;
15952;SDS011;8075;47.766;8.846;2023-04-01T19:45:57;1.10;;;0.80;;
15952;SDS011;8075;47.766;8.846;2023-04-01T19:50:57;1.23;;;0.70;;
15952;SDS011;8075;47.766;8.846;2023-04-01T19:56:18;1.70;;;0.70;;
15952;SDS011;8075;47.766;8.846;2023-04-01T19:58:49;1.00;;;0.80;;
15952;SDS011;8075;47.766;8.846;2023-04-01T20:01:27;1.25;;;0.85;;
15952;SDS011;8075;47.766;8.846;2023-04-01T20:03:55;2.33;;;1.10;;
15952;SDS011;8075;47.766;8.846;2023-04-01T20:11:34;1.17;;;1.00;;
15952;SDS011;8075;47.766;8.846;2023-04-01T20:14:07;2.20;;;1.35;;
15952;SDS011;8075;47.766;8.846;2023-04-01T20:16:37;2.35;;;1.33;;
15952;SDS011;8075;47.766;8.846;2023-04-01T20:19:06;1.67;;;1.00;;
15952;SDS011;8075;47.766;8.846;2023-04-01T20:21:34;1.67;;;1.10;;
15952;SDS011;8075;47.766;8.846;2023-04-01T20:24:04;1.95;;;1.10;;
15952;SDS011;8075;47.766;8.846;2023-04-01T20:26:34;1.97;;;1.70;;
15952;SDS011;8075;47.766;8.846;2023-04-01T20:31:31;3.03;;;1.60;;
15952;SDS011;8075;47.766;8.846;2023-04-01T20:44:21;1.55;;;1.00;;
15952;SDS011;8075;47.766;8.846;2023-04-01T20:47:00;1.20;;;0.98;;
15952;SDS011;8075;47.766;8.846;2023-04-01T20:57:25;2.17;;;1.33;;
15952;SDS011;8075;47.766;8.846;2023-04-01T21:07:40;3.20;;;1.83;;
15952;SDS011;8075;47.766;8.846;2023-04-01T21:15:46;2.25;;;1.50;;
15952;SDS011;8075;47.766;8.846;2023-04-01T21:23:42;1.75;;;1.20;;
15952;SDS011;8075;47.766;8.846;2023-04-01T21:26:19;1.90;;;1.40;;
15952;SDS011;8075;47.766;8.846;2023-04-01T21:32:08;2.05;;;1.60;;
15952;SDS011;8075;47.766;8.846;2023-04-01T21:40:11;1.92;;;1.33;;
15952;SDS011;8075;47.766;8.846;2023-04-01T21:42:59;1.80;;;1.30;;
15952;SDS011;8075;47.766;8.846;2023-04-01T21:45:35;2.03;;;1.15;;
15952;SDS011;8075;47.766;8.846;2023-04-01T21:53:06;1.00;;;0.90;;
15952;SDS011;8075;47.766;8.846;2023-04-01T21:55:42;1.80;;;1.05;;
15952;SDS011;8075;47.766;8.846;2023-04-01T21:58:32;2.20;;;0.90;;
15952;SDS011;8075;47.766;8.846;2023-04-01T22:06:00;1.83;;;1.20;;
15952;SDS011;8075;47.766;8.846;2023-04-01T22:11:22;1.85;;;1.00;;
15952;SDS011;8075;47.766;8.846;2023-04-01T22:14:13;1.52;;;1.23;;
15952;SDS011;8075;47.766;8.846;2023-04-01T22:16:45;1.40;;;1.27;;
15952;SDS011;8075;47.766;8.846;2023-04-01T22:19:26;2.00;;;1.30;;
15952;SDS011;8075;47.766;8.846;2023-04-01T22:22:02;2.70;;;1.48;;
15952;SDS011;8075;47.766;8.846;2023-04-01T22:27:20;1.88;;;1.52;;
15952;SDS011;8075;47.766;8.846;2023-04-01T22:32:17;2.60;;;2.00;;
15952;SDS011;8075;47.766;8.846;2023-04-01T22:34:49;3.50;;;2.07;;
15952;SDS011;8075;47.766;8.846;2023-04-01T22:43:10;2.17;;;1.33;;
15952;SDS011;8075;47.766;8.846;2023-04-01T22:50:42;2.30;;;1.27;;
15952;SDS011;8075;47.766;8.846;2023-04-01T22:53:35;2.20;;;1.13;;
15952;SDS011;8075;47.766;8.846;2023-04-01T22:56:12;1.95;;;1.10;;
15952;SDS011;8075;47.766;8.846;2023-04-01T22:58:42;1.13;;;1.00;;
15952;SDS011;8075;47.766;8.846;2023-04-01T23:01:13;1.50;;;1.10;;
15952;SDS011;8075;47.766;8.846;2023-04-01T23:03:41;2.13;;;1.00;;
15952;SDS011;8075;47.766;8.846;2023-04-01T23:09:23;1.40;;;0.90;;
15952;SDS011;8075;47.766;8.846;2023-04-01T23:11:55;2.40;;;1.00;;
15952;SDS011;8075;47.766;8.846;2023-04-01T23:22:04;1.60;;;0.68;;
15952;SDS011;8075;47.766;8.846;2023-04-01T23:24:33;1.35;;;0.70;;
15952;SDS011;8075;47.766;8.846;2023-04-01T23:27:03;1.80;;;0.90;;
15952;SDS011;8075;47.766;8.846;2023-04-01T23:29:31;1.40;;;0.90;;
15952;SDS011;8075;47.766;8.846;2023-04-01T23:32:01;0.87;;;0.77;;
15952;SDS011;8075;47.766;8.846;2023-04-01T23:34:28;0.77;;;0.55;;
15952;SDS011;8075;47.766;8.846;2023-04-01T23:36:56;1.00;;;0.68;;
15952;SDS011;8075;47.766;8.846;2023-04-01T23:39:28;2.05;;;0.82;;
15952;SDS011;8075;47.766;8.846;2023-04-01T23:41:56;1.60;;;0.80;;
15952;SDS011;8075;47.766;8.846;2023-04-01T23:44:24;1.30;;;0.70;;
15952;SDS011;8075;47.766;8.846;2023-04-01T23:46:51;1.52;;;0.70;;
15952;SDS011;8075;47.766;8.846;2023-04-01T23:49:19;1.00;;;0.60;;
15952;SDS011;8075;47.766;8.846;2023-04-01T23:54:54;1.33;;;0.60;;
15952;SDS011;8075;47.766;8.846;2023-04-01T23:57:24;0.90;;;0.50;;
15952;SDS011;8075;47.766;8.846;2023-04-01T23:59:59;1.27;;;0.60;;
